createdAt,value
2022-12-03T00:00:07.467Z,61.90
2022-12-03T00:01:46.279Z,61.90
2022-12-03T00:03:20.977Z,62.10
2022-12-03T00:04:54.740Z,62.00
2022-12-03T00:06:32.897Z,62.00
2022-12-03T00:08:07.626Z,61.80
2022-12-03T00:09:40.846Z,61.70
2022-12-03T00:11:14.004Z,61.50
2022-12-03T00:12:47.186Z,61.40
2022-12-03T00:14:20.319Z,61.30
2022-12-03T00:15:53.674Z,61.30
2022-12-03T00:17:26.849Z,61.40
2022-12-03T00:19:01.319Z,61.10
2022-12-03T00:20:35.859Z,61.50
2022-12-03T00:22:08.319Z,61.70
2022-12-03T00:23:42.516Z,61.70
2022-12-03T00:25:16.009Z,61.80
2022-12-03T00:26:48.169Z,62.00
2022-12-03T00:28:21.409Z,62.10
2022-12-03T00:29:53.651Z,62.10
2022-12-03T00:31:26.970Z,62.10
2022-12-03T00:33:00.220Z,62.00
2022-12-03T00:34:36.002Z,62.00
2022-12-03T00:36:10.035Z,62.10
2022-12-03T00:37:43.583Z,62.20
2022-12-03T00:39:16.707Z,62.40
2022-12-03T00:40:49.890Z,62.20
2022-12-03T00:42:23.086Z,62.30
2022-12-03T00:43:57.675Z,62.20
2022-12-03T00:45:30.262Z,62.00
2022-12-03T00:47:03.743Z,62.20
2022-12-03T00:48:37.321Z,62.20
2022-12-03T00:50:12.983Z,62.20
2022-12-03T00:51:47.141Z,62.20
2022-12-03T00:53:20.290Z,61.70
2022-12-03T00:54:53.869Z,61.70
2022-12-03T00:56:27.245Z,61.50
2022-12-03T00:58:00.545Z,61.60
2022-12-03T00:59:33.896Z,61.50
2022-12-03T01:01:07.438Z,61.50
2022-12-03T01:02:40.878Z,61.70
2022-12-03T01:04:14.290Z,61.70
2022-12-03T01:05:48.851Z,61.90
2022-12-03T01:07:22.014Z,62.00
2022-12-03T01:08:55.186Z,62.10
2022-12-03T01:10:29.404Z,62.20
2022-12-03T01:12:01.821Z,62.30
2022-12-03T01:13:34.991Z,62.20
2022-12-03T01:15:10.463Z,62.30
2022-12-03T01:16:43.970Z,62.20
2022-12-03T01:18:17.157Z,61.90
2022-12-03T01:19:52.434Z,61.80
2022-12-03T01:21:26.228Z,61.70
2022-12-03T01:22:59.451Z,61.70
2022-12-03T01:24:32.721Z,61.60
2022-12-03T01:26:05.427Z,61.70
2022-12-03T01:27:38.667Z,61.70
2022-12-03T01:29:11.176Z,61.70
2022-12-03T01:30:58.250Z,61.70
2022-12-03T01:32:31.505Z,61.70
2022-12-03T01:34:04.051Z,61.80
2022-12-03T01:35:37.171Z,61.70
2022-12-03T01:37:11.794Z,61.50
2022-12-03T01:38:45.090Z,61.50
2022-12-03T01:40:22.218Z,61.40
2022-12-03T01:41:56.530Z,61.60
2022-12-03T01:43:29.899Z,61.70
2022-12-03T01:45:05.442Z,61.70
2022-12-03T01:46:41.495Z,61.80
2022-12-03T01:48:17.068Z,61.80
2022-12-03T01:49:55.992Z,61.90
2022-12-03T01:51:29.443Z,61.80
2022-12-03T01:53:05.021Z,61.80
2022-12-03T01:54:42.169Z,61.80
2022-12-03T01:56:17.808Z,61.80
2022-12-03T01:57:54.799Z,61.70
2022-12-03T01:59:35.427Z,61.80
2022-12-03T02:01:13.814Z,61.80
2022-12-03T02:02:50.654Z,61.80
2022-12-03T02:04:24.903Z,61.80
2022-12-03T02:05:58.160Z,62.00
2022-12-03T02:07:34.633Z,61.70
2022-12-03T02:09:10.686Z,61.60
2022-12-03T02:10:43.895Z,61.50
2022-12-03T02:12:22.283Z,61.60
2022-12-03T02:14:01.457Z,62.00
2022-12-03T02:15:35.525Z,61.80
2022-12-03T02:17:09.026Z,61.80
2022-12-03T02:18:43.018Z,61.80
2022-12-03T02:20:17.165Z,61.80
2022-12-03T02:22:00.671Z,61.90
2022-12-03T02:23:44.269Z,61.90
2022-12-03T02:25:22.249Z,61.80
2022-12-03T02:26:55.514Z,61.80
2022-12-03T02:28:30.377Z,61.70
2022-12-03T02:30:04.337Z,61.70
2022-12-03T02:31:37.691Z,61.70
2022-12-03T02:33:11.153Z,61.50
2022-12-03T02:34:46.144Z,61.70
2022-12-03T02:36:19.585Z,61.80
2022-12-03T02:37:59.217Z,61.70
2022-12-03T02:39:34.574Z,61.80
2022-12-03T02:41:35.047Z,61.70
2022-12-03T02:43:07.534Z,61.70
2022-12-03T02:44:40.035Z,61.60
2022-12-03T02:46:13.305Z,61.50
2022-12-03T02:47:49.915Z,61.50
2022-12-03T02:49:23.163Z,61.50
2022-12-03T02:51:01.973Z,61.40
2022-12-03T02:52:35.712Z,61.40
2022-12-03T02:54:09.007Z,61.30
2022-12-03T02:55:43.342Z,61.20
2022-12-03T02:57:18.492Z,61.40
2022-12-03T02:58:57.741Z,61.30
2022-12-03T03:00:31.875Z,61.30
2022-12-03T03:02:05.458Z,61.30
2022-12-03T03:03:39.985Z,61.10
2022-12-03T03:05:14.487Z,61.00
2022-12-03T03:06:47.695Z,60.90
2022-12-03T03:08:21.478Z,60.70
2022-12-03T03:09:54.803Z,60.50
2022-12-03T03:11:28.435Z,60.60
2022-12-03T03:13:07.794Z,60.60
2022-12-03T03:14:41.208Z,60.60
2022-12-03T03:16:14.788Z,60.60
2022-12-03T03:17:47.018Z,60.60
2022-12-03T03:19:21.033Z,60.50
2022-12-03T03:20:54.658Z,60.50
2022-12-03T03:22:34.290Z,60.60
2022-12-03T03:24:08.614Z,60.70
2022-12-03T03:25:46.522Z,60.70
2022-12-03T03:27:19.710Z,60.80
2022-12-03T03:28:54.258Z,60.60
2022-12-03T03:30:28.115Z,60.50
2022-12-03T03:32:04.101Z,60.50
2022-12-03T03:33:38.095Z,60.60
2022-12-03T03:35:13.953Z,60.60
2022-12-03T03:36:47.867Z,60.40
2022-12-03T03:38:23.347Z,60.30
2022-12-03T03:39:56.817Z,60.30
2022-12-03T03:41:31.007Z,60.30
2022-12-03T03:43:04.158Z,60.30
2022-12-03T03:44:39.197Z,60.20
2022-12-03T03:46:12.270Z,60.20
2022-12-03T03:47:46.331Z,60.30
2022-12-03T03:49:20.710Z,60.40
2022-12-03T03:50:53.588Z,60.20
2022-12-03T03:52:27.207Z,60.20
2022-12-03T03:54:01.120Z,60.30
2022-12-03T03:55:35.485Z,60.20
2022-12-03T03:57:08.874Z,60.20
2022-12-03T03:58:43.479Z,60.10
2022-12-03T04:00:18.953Z,59.90
2022-12-03T04:01:52.836Z,59.90
2022-12-03T04:03:26.133Z,59.80
2022-12-03T04:04:59.527Z,59.80
2022-12-03T04:06:32.717Z,59.90
2022-12-03T04:08:06.150Z,60.00
2022-12-03T04:09:39.513Z,60.10
2022-12-03T04:11:30.388Z,60.10
2022-12-03T04:13:03.761Z,60.00
2022-12-03T04:14:37.046Z,60.10
2022-12-03T04:16:10.683Z,60.70
2022-12-03T04:17:43.914Z,59.90
2022-12-03T04:19:16.277Z,59.70
2022-12-03T04:20:49.611Z,59.70
2022-12-03T04:22:45.692Z,59.70
2022-12-03T04:24:17.933Z,59.80
2022-12-03T04:26:08.847Z,59.80
2022-12-03T04:27:59.746Z,59.80
2022-12-03T04:29:32.974Z,59.80
2022-12-03T04:31:25.777Z,60.00
2022-12-03T04:33:18.019Z,59.90
2022-12-03T04:35:09.085Z,60.00
2022-12-03T04:36:42.419Z,60.10
2022-12-03T04:38:17.843Z,60.10
2022-12-03T04:39:51.032Z,60.30
2022-12-03T04:41:23.256Z,60.50
2022-12-03T04:42:56.500Z,60.60
2022-12-03T04:44:36.312Z,60.70
2022-12-03T04:46:09.787Z,60.70
2022-12-03T04:47:42.966Z,60.60
2022-12-03T04:49:16.634Z,60.70
2022-12-03T04:50:50.043Z,60.70
2022-12-03T04:52:23.247Z,60.60
2022-12-03T04:53:55.473Z,60.60
2022-12-03T04:55:28.613Z,60.40
2022-12-03T04:57:02.201Z,60.30
2022-12-03T04:58:36.526Z,60.40
2022-12-03T05:00:11.545Z,60.40
2022-12-03T05:01:44.756Z,60.50
2022-12-03T05:03:18.074Z,60.50
2022-12-03T05:04:52.966Z,60.50
2022-12-03T05:06:26.208Z,60.40
2022-12-03T05:07:59.484Z,60.40
2022-12-03T05:09:32.935Z,60.30
2022-12-03T05:11:06.262Z,60.20
2022-12-03T05:12:39.775Z,60.30
2022-12-03T05:14:13.246Z,60.20
2022-12-03T05:15:46.342Z,60.30
2022-12-03T05:17:19.501Z,60.00
2022-12-03T05:18:52.047Z,60.10
2022-12-03T05:20:51.526Z,60.20
2022-12-03T05:22:25.663Z,60.20
2022-12-03T05:23:59.014Z,60.30
2022-12-03T05:25:31.380Z,60.30
2022-12-03T05:27:04.773Z,60.30
2022-12-03T05:28:36.989Z,60.20
2022-12-03T05:30:11.588Z,60.10
2022-12-03T05:31:44.723Z,60.20
2022-12-03T05:33:16.972Z,60.10
2022-12-03T05:34:50.075Z,60.20
2022-12-03T05:36:25.503Z,60.30
2022-12-03T05:37:58.724Z,60.40
2022-12-03T05:39:32.145Z,60.50
2022-12-03T05:41:26.753Z,60.60
2022-12-03T05:43:01.147Z,60.60
2022-12-03T05:44:33.395Z,60.50
2022-12-03T05:46:06.973Z,60.50
2022-12-03T05:47:39.170Z,60.60
2022-12-03T05:49:12.530Z,60.40
2022-12-03T05:50:46.798Z,60.30
2022-12-03T05:52:22.477Z,60.40
2022-12-03T05:53:55.674Z,60.10
2022-12-03T05:55:29.848Z,60.20
2022-12-03T05:57:04.090Z,60.40
2022-12-03T05:58:37.274Z,60.30
2022-12-03T06:00:15.771Z,60.20
2022-12-03T06:01:49.058Z,60.40
2022-12-03T06:03:22.339Z,60.20
2022-12-03T06:04:55.896Z,60.00
2022-12-03T06:06:29.246Z,60.00
2022-12-03T06:08:03.992Z,60.00
2022-12-03T06:09:36.176Z,60.00
2022-12-03T06:11:09.403Z,59.90
2022-12-03T06:12:42.286Z,59.80
2022-12-03T06:14:15.436Z,59.90
2022-12-03T06:15:48.665Z,59.80
2022-12-03T06:17:21.199Z,59.80
2022-12-03T06:18:54.469Z,59.80
2022-12-03T06:20:27.727Z,59.80
2022-12-03T06:22:01.105Z,59.70
2022-12-03T06:23:35.830Z,59.70
2022-12-03T06:25:09.201Z,59.60
2022-12-03T06:26:42.329Z,59.80
2022-12-03T06:28:15.570Z,59.70
2022-12-03T06:29:47.903Z,59.70
2022-12-03T06:31:21.112Z,59.70
2022-12-03T06:32:54.365Z,59.80
2022-12-03T06:34:26.638Z,59.70
2022-12-03T06:35:59.885Z,59.70
2022-12-03T06:37:34.042Z,59.70
2022-12-03T06:39:08.546Z,59.60
2022-12-03T06:40:41.647Z,59.50
2022-12-03T06:42:14.764Z,59.50
2022-12-03T06:43:47.059Z,59.60
2022-12-03T06:45:20.357Z,59.70
2022-12-03T06:46:53.582Z,59.70
2022-12-03T06:48:26.770Z,59.60
2022-12-03T06:49:59.955Z,59.50
2022-12-03T06:51:33.195Z,59.50
2022-12-03T06:53:06.327Z,59.50
2022-12-03T06:54:40.880Z,59.60
2022-12-03T06:56:14.065Z,59.60
2022-12-03T06:57:47.231Z,59.70
2022-12-03T06:59:20.369Z,59.80
2022-12-03T07:00:53.549Z,59.80
2022-12-03T07:02:26.800Z,59.80
2022-12-03T07:04:00.262Z,59.90
2022-12-03T07:05:33.420Z,60.00
2022-12-03T07:07:06.740Z,59.90
2022-12-03T07:08:40.004Z,59.90
2022-12-03T07:10:14.847Z,60.00
2022-12-03T07:11:48.232Z,60.00
2022-12-03T07:13:21.723Z,60.10
2022-12-03T07:14:55.500Z,60.20
2022-12-03T07:16:30.085Z,60.20
2022-12-03T07:18:04.545Z,60.20
2022-12-03T07:19:37.812Z,60.10
2022-12-03T07:21:10.997Z,60.10
2022-12-03T07:22:44.227Z,59.90
2022-12-03T07:24:17.666Z,60.00
2022-12-03T07:25:52.345Z,60.00
2022-12-03T07:27:25.465Z,59.90
2022-12-03T07:28:58.755Z,59.90
2022-12-03T07:30:31.914Z,59.80
2022-12-03T07:32:05.618Z,59.80
2022-12-03T07:33:38.754Z,60.60
2022-12-03T07:35:11.908Z,59.80
2022-12-03T07:36:45.111Z,59.70
2022-12-03T07:38:18.452Z,59.80
2022-12-03T07:39:52.297Z,59.80
2022-12-03T07:41:26.782Z,59.80
2022-12-03T07:43:00.032Z,59.70
2022-12-03T07:44:33.296Z,59.70
2022-12-03T07:46:07.161Z,59.70
2022-12-03T07:47:40.294Z,59.70
2022-12-03T07:49:13.576Z,59.60
2022-12-03T07:50:46.737Z,59.60
2022-12-03T07:52:20.021Z,59.70
2022-12-03T07:53:53.274Z,59.80
2022-12-03T07:55:26.602Z,59.70
2022-12-03T07:57:02.244Z,59.70
2022-12-03T07:58:35.743Z,59.70
2022-12-03T08:00:11.187Z,59.80
2022-12-03T08:01:44.452Z,59.80
2022-12-03T08:03:17.637Z,59.60
2022-12-03T08:04:52.676Z,59.60
2022-12-03T08:06:26.072Z,59.60
2022-12-03T08:07:59.447Z,59.60
2022-12-03T08:09:32.764Z,59.60
2022-12-03T08:11:06.904Z,59.60
2022-12-03T08:12:41.565Z,59.40
2022-12-03T08:14:17.695Z,59.40
2022-12-03T08:15:50.805Z,59.50
2022-12-03T08:17:25.267Z,59.50
2022-12-03T08:18:58.765Z,59.70
2022-12-03T08:20:38.449Z,59.60
2022-12-03T08:22:15.075Z,59.80
2022-12-03T08:23:48.677Z,59.90
2022-12-03T08:25:24.113Z,59.90
2022-12-03T08:26:58.530Z,60.00
2022-12-03T08:28:33.283Z,59.90
2022-12-03T08:30:08.680Z,59.80
2022-12-03T08:31:42.783Z,59.90
2022-12-03T08:33:27.697Z,59.90
2022-12-03T08:35:03.157Z,59.80
2022-12-03T08:36:36.679Z,59.70
2022-12-03T08:38:13.577Z,59.50
2022-12-03T08:39:49.343Z,59.40
2022-12-03T08:41:37.888Z,59.20
2022-12-03T08:43:19.604Z,59.10
2022-12-03T08:44:55.257Z,59.00
2022-12-03T08:46:28.840Z,58.80
2022-12-03T08:48:19.107Z,58.70
2022-12-03T08:49:57.952Z,58.80
2022-12-03T08:51:31.345Z,59.00
2022-12-03T08:53:25.711Z,59.00
2022-12-03T08:54:59.582Z,59.20
2022-12-03T08:56:37.765Z,59.10
2022-12-03T08:58:23.206Z,59.00
2022-12-03T09:00:01.918Z,58.80
2022-12-03T09:01:42.640Z,58.90
2022-12-03T09:03:20.167Z,58.80
2022-12-03T09:04:56.952Z,58.80
2022-12-03T09:06:30.086Z,58.70
2022-12-03T09:08:03.379Z,58.70
2022-12-03T09:09:36.660Z,58.50
2022-12-03T09:11:10.019Z,58.50
2022-12-03T09:12:43.280Z,58.70
2022-12-03T09:14:21.032Z,58.70
2022-12-03T09:15:55.609Z,58.80
2022-12-03T09:17:29.370Z,58.60
2022-12-03T09:19:03.152Z,58.80
2022-12-03T09:20:36.495Z,58.70
2022-12-03T09:22:09.810Z,58.70
2022-12-03T09:23:42.958Z,58.70
2022-12-03T09:25:16.932Z,58.80
2022-12-03T09:26:51.284Z,58.80
2022-12-03T09:28:24.602Z,58.70
2022-12-03T09:29:57.856Z,58.50
2022-12-03T09:31:34.324Z,58.50
2022-12-03T09:33:07.542Z,58.50
2022-12-03T09:34:42.322Z,58.60
2022-12-03T09:36:15.772Z,58.80
2022-12-03T09:37:49.047Z,58.60
2022-12-03T09:39:22.372Z,58.60
2022-12-03T09:40:55.724Z,58.50
2022-12-03T09:42:29.328Z,58.50
2022-12-03T09:44:05.312Z,58.50
2022-12-03T09:45:39.061Z,58.40
2022-12-03T09:47:13.819Z,58.30
2022-12-03T09:48:47.522Z,58.40
2022-12-03T09:50:26.280Z,58.40
2022-12-03T09:52:03.428Z,58.30
2022-12-03T09:53:41.042Z,58.20
2022-12-03T09:55:21.717Z,58.00
2022-12-03T09:56:57.651Z,58.10
2022-12-03T09:58:34.735Z,58.20
2022-12-03T10:00:18.552Z,58.20
2022-12-03T10:01:53.234Z,58.40
2022-12-03T10:03:33.765Z,58.30
2022-12-03T10:05:07.538Z,58.20
2022-12-03T10:06:45.781Z,58.20
2022-12-03T10:08:26.037Z,58.30
2022-12-03T10:10:01.589Z,58.00
2022-12-03T10:11:36.689Z,57.90
2022-12-03T10:13:25.424Z,58.30
2022-12-03T10:15:01.065Z,58.20
2022-12-03T10:16:36.900Z,58.10
2022-12-03T10:18:20.266Z,58.20
2022-12-03T10:19:55.166Z,58.30
2022-12-03T10:21:36.858Z,58.30
2022-12-03T10:23:10.200Z,58.30
2022-12-03T10:24:44.711Z,58.30
2022-12-03T10:26:18.350Z,58.10
2022-12-03T10:27:59.690Z,58.00
2022-12-03T10:29:35.783Z,57.90
2022-12-03T10:31:12.265Z,57.90
2022-12-03T10:32:47.892Z,57.90
2022-12-03T10:34:26.603Z,57.80
2022-12-03T10:36:21.320Z,57.80
2022-12-03T10:38:01.720Z,57.60
2022-12-03T10:39:56.364Z,57.50
2022-12-03T10:41:30.150Z,57.40
2022-12-03T10:43:21.703Z,57.60
2022-12-03T10:45:19.750Z,57.30
2022-12-03T10:47:08.057Z,57.30
2022-12-03T10:48:41.691Z,57.40
2022-12-03T10:50:22.040Z,57.50
2022-12-03T10:51:56.819Z,57.60
2022-12-03T10:53:34.379Z,57.40
2022-12-03T10:55:11.891Z,57.50
2022-12-03T10:56:47.827Z,57.50
2022-12-03T10:58:25.752Z,57.60
2022-12-03T10:59:59.532Z,57.60
2022-12-03T11:01:33.439Z,57.80
2022-12-03T11:03:20.333Z,57.70
2022-12-03T11:04:54.750Z,57.80
2022-12-03T11:06:31.734Z,57.60
2022-12-03T11:08:06.896Z,57.70
2022-12-03T11:09:43.601Z,57.70
2022-12-03T11:11:21.281Z,57.80
2022-12-03T11:13:39.750Z,57.80
2022-12-03T11:15:17.510Z,57.90
2022-12-03T11:17:09.814Z,57.90
2022-12-03T11:18:59.801Z,57.80
2022-12-03T11:21:08.811Z,57.80
2022-12-03T11:22:45.290Z,57.80
2022-12-03T11:24:21.952Z,58.00
2022-12-03T11:25:55.123Z,57.80
2022-12-03T11:27:28.486Z,57.70
2022-12-03T11:29:01.832Z,58.30
2022-12-03T11:31:02.209Z,57.50
2022-12-03T11:33:06.998Z,57.60
2022-12-03T11:34:43.602Z,57.40
2022-12-03T11:36:31.554Z,57.60
2022-12-03T11:38:52.243Z,57.60
2022-12-03T11:40:36.124Z,57.50
2022-12-03T11:42:39.654Z,57.40
2022-12-03T11:44:33.607Z,57.30
2022-12-03T11:46:11.091Z,57.00
2022-12-03T11:47:48.727Z,57.00
2022-12-03T11:49:39.049Z,57.20
2022-12-03T11:51:16.651Z,57.20
2022-12-03T11:52:55.690Z,56.90
2022-12-03T11:54:29.377Z,57.00
2022-12-03T11:56:09.990Z,57.30
2022-12-03T11:57:44.149Z,57.40
2022-12-03T11:59:19.168Z,57.40
2022-12-03T12:00:55.176Z,57.50
2022-12-03T12:02:28.338Z,57.50
2022-12-03T12:04:01.785Z,57.40
2022-12-03T12:05:35.522Z,57.40
2022-12-03T12:07:08.648Z,57.40
2022-12-03T12:08:56.344Z,57.40
2022-12-03T12:10:45.204Z,57.50
2022-12-03T12:12:40.911Z,57.40
2022-12-03T12:14:14.901Z,57.30
2022-12-03T12:15:48.490Z,57.20
2022-12-03T12:17:37.056Z,57.10
2022-12-03T12:19:35.373Z,57.30
2022-12-03T12:21:40.735Z,57.30
2022-12-03T12:23:29.638Z,57.30
2022-12-03T12:25:05.047Z,57.20
2022-12-03T12:26:38.244Z,57.20
2022-12-03T12:28:12.737Z,56.90
2022-12-03T12:29:52.879Z,57.10
2022-12-03T12:31:27.525Z,57.20
2022-12-03T12:33:15.247Z,57.20
2022-12-03T12:34:52.419Z,57.20
2022-12-03T12:36:25.624Z,57.30
2022-12-03T12:38:15.994Z,57.30
2022-12-03T12:39:49.851Z,57.40
2022-12-03T12:41:23.733Z,57.40
2022-12-03T12:42:59.335Z,57.40
2022-12-03T12:44:34.275Z,57.50
2022-12-03T12:46:46.063Z,57.40
2022-12-03T12:48:21.929Z,57.60
2022-12-03T12:49:57.226Z,57.50
2022-12-03T12:51:30.951Z,57.40
2022-12-03T12:53:16.814Z,57.40
2022-12-03T12:54:50.056Z,57.60
2022-12-03T12:56:27.201Z,57.50
2022-12-03T12:58:08.868Z,57.60
2022-12-03T12:59:49.384Z,57.50
2022-12-03T13:01:35.594Z,57.10
2022-12-03T13:03:11.729Z,57.20
2022-12-03T13:04:57.401Z,57.30
2022-12-03T13:06:33.353Z,57.00
2022-12-03T13:08:31.144Z,57.30
2022-12-03T13:10:37.173Z,57.30
2022-12-03T13:12:22.091Z,57.30
2022-12-03T13:13:55.343Z,57.30
2022-12-03T13:15:42.774Z,57.30
2022-12-03T13:17:24.266Z,57.10
2022-12-03T13:18:59.672Z,57.00
2022-12-03T13:20:32.996Z,57.00
2022-12-03T13:22:17.096Z,57.20
2022-12-03T13:23:53.661Z,57.30
2022-12-03T13:26:00.296Z,57.50
2022-12-03T13:27:31.780Z,57.40
2022-12-03T13:29:14.800Z,57.40
2022-12-03T13:30:49.322Z,57.40
2022-12-03T13:32:30.716Z,57.10
2022-12-03T13:34:15.173Z,57.00
2022-12-03T13:35:48.492Z,57.00
2022-12-03T13:37:26.229Z,57.00
2022-12-03T13:39:00.101Z,57.00
2022-12-03T13:40:35.312Z,57.00
2022-12-03T13:42:38.677Z,57.00
2022-12-03T13:44:19.758Z,57.00
2022-12-03T13:45:55.345Z,57.00
2022-12-03T13:47:29.137Z,57.00
2022-12-03T13:49:02.715Z,57.00
2022-12-03T13:50:39.331Z,57.00
2022-12-03T13:52:18.093Z,57.10
2022-12-03T13:53:57.907Z,57.00
2022-12-03T13:55:36.038Z,57.00
2022-12-03T13:57:18.409Z,56.90
2022-12-03T13:58:55.250Z,56.90
2022-12-03T14:00:28.608Z,56.90
2022-12-03T14:02:03.214Z,57.00
2022-12-03T14:03:36.593Z,57.00
2022-12-03T14:05:10.925Z,57.00
2022-12-03T14:06:44.104Z,57.00
2022-12-03T14:08:17.358Z,57.00
2022-12-03T14:09:50.815Z,57.00
2022-12-03T14:11:41.604Z,57.00
2022-12-03T14:13:14.922Z,57.00
2022-12-03T14:14:48.206Z,56.90
2022-12-03T14:16:21.432Z,57.00
2022-12-03T14:17:56.040Z,57.00
2022-12-03T14:19:29.222Z,57.00
2022-12-03T14:21:02.385Z,57.00
2022-12-03T14:22:37.853Z,57.00
2022-12-03T14:24:11.283Z,57.00
2022-12-03T14:25:44.747Z,57.00
2022-12-03T14:27:17.969Z,57.00
2022-12-03T14:28:51.223Z,57.00
2022-12-03T14:30:24.478Z,57.00
2022-12-03T14:31:57.987Z,57.00
2022-12-03T14:33:32.623Z,57.00
2022-12-03T14:35:10.043Z,57.00
2022-12-03T14:36:44.151Z,57.00
2022-12-03T14:38:17.268Z,57.00
2022-12-03T14:39:50.625Z,57.00
2022-12-03T14:41:41.765Z,57.00
2022-12-03T14:43:15.087Z,57.00
2022-12-03T14:44:51.245Z,57.00
2022-12-03T14:46:25.104Z,57.00
2022-12-03T14:48:00.241Z,57.00
2022-12-03T14:49:35.164Z,57.00
2022-12-03T14:51:08.314Z,57.00
2022-12-03T14:52:41.783Z,57.70
2022-12-03T14:54:14.986Z,57.00
2022-12-03T14:55:48.252Z,57.00
2022-12-03T14:57:22.462Z,57.00
2022-12-03T14:58:55.663Z,57.00
2022-12-03T15:00:28.921Z,57.10
2022-12-03T15:02:02.190Z,57.30
2022-12-03T15:03:35.583Z,57.30
2022-12-03T15:05:10.621Z,57.30
2022-12-03T15:06:43.674Z,57.20
2022-12-03T15:08:16.833Z,57.00
2022-12-03T15:09:50.041Z,57.00
2022-12-03T15:11:23.227Z,57.00
2022-12-03T15:12:56.430Z,57.00
2022-12-03T15:14:29.884Z,57.00
2022-12-03T15:16:03.272Z,57.10
2022-12-03T15:17:36.446Z,57.00
2022-12-03T15:19:10.018Z,57.00
2022-12-03T15:20:45.593Z,57.00
2022-12-03T15:22:18.741Z,57.00
2022-12-03T15:23:52.022Z,57.20
2022-12-03T15:25:25.688Z,57.30
2022-12-03T15:27:02.042Z,57.30
2022-12-03T15:28:35.614Z,57.30
2022-12-03T15:30:10.454Z,57.10
2022-12-03T15:31:46.303Z,57.10
2022-12-03T15:33:19.579Z,57.00
2022-12-03T15:35:37.568Z,57.00
2022-12-03T15:37:14.809Z,57.00
2022-12-03T15:38:48.133Z,57.10
2022-12-03T15:40:21.421Z,56.90
2022-12-03T15:41:54.971Z,56.90
2022-12-03T15:43:28.161Z,56.90
2022-12-03T15:45:01.565Z,57.00
2022-12-03T15:46:35.063Z,57.00
2022-12-03T15:48:10.631Z,57.00
2022-12-03T15:49:44.967Z,57.00
2022-12-03T15:51:18.352Z,57.00
2022-12-03T15:52:52.895Z,57.00
2022-12-03T15:54:26.167Z,57.00
2022-12-03T15:55:59.484Z,57.00
2022-12-03T15:57:32.722Z,56.90
2022-12-03T15:59:05.893Z,56.90
2022-12-03T16:00:39.213Z,56.90
2022-12-03T16:02:12.475Z,57.00
2022-12-03T16:03:45.811Z,57.00
2022-12-03T16:05:19.206Z,57.00
2022-12-03T16:06:53.555Z,57.10
2022-12-03T16:08:28.149Z,57.10
2022-12-03T16:10:01.977Z,57.10
2022-12-03T16:11:35.719Z,57.20
2022-12-03T16:13:08.913Z,57.30
2022-12-03T16:14:42.329Z,57.30
2022-12-03T16:16:15.608Z,57.30
2022-12-03T16:17:48.958Z,57.30
2022-12-03T16:19:22.255Z,57.30
2022-12-03T16:20:55.645Z,57.30
2022-12-03T16:22:28.839Z,57.20
2022-12-03T16:24:03.799Z,57.30
2022-12-03T16:25:37.200Z,57.40
2022-12-03T16:27:10.356Z,57.40
2022-12-03T16:28:43.574Z,57.30
2022-12-03T16:30:17.893Z,57.40
2022-12-03T16:31:51.111Z,57.50
2022-12-03T16:33:27.894Z,57.30
2022-12-03T16:35:01.630Z,57.30
2022-12-03T16:36:34.925Z,57.30
2022-12-03T16:38:10.260Z,57.30
2022-12-03T16:39:45.061Z,57.20
2022-12-03T16:41:19.282Z,57.20
2022-12-03T16:42:52.542Z,57.20
2022-12-03T16:44:54.208Z,57.20
2022-12-03T16:46:27.535Z,57.20
2022-12-03T16:48:02.664Z,57.20
2022-12-03T16:49:36.734Z,57.40
2022-12-03T16:51:10.252Z,57.30
2022-12-03T16:52:43.477Z,57.40
2022-12-03T16:54:16.672Z,57.50
2022-12-03T16:55:51.353Z,57.60
2022-12-03T16:57:28.918Z,57.60
2022-12-03T16:59:05.297Z,57.70
2022-12-03T17:00:38.464Z,57.80
2022-12-03T17:02:13.596Z,57.90
2022-12-03T17:03:46.946Z,57.90
2022-12-03T17:05:20.159Z,57.80
2022-12-03T17:06:53.286Z,57.70
2022-12-03T17:08:26.493Z,57.60
2022-12-03T17:10:01.147Z,57.60
2022-12-03T17:11:35.743Z,57.60
2022-12-03T17:13:10.390Z,57.70
2022-12-03T17:14:43.780Z,57.70
2022-12-03T17:16:17.088Z,57.70
2022-12-03T17:17:50.344Z,57.70
2022-12-03T17:19:24.626Z,57.70
2022-12-03T17:20:57.800Z,57.70
2022-12-03T17:22:31.090Z,57.70
2022-12-03T17:24:04.472Z,57.70
2022-12-03T17:25:37.685Z,57.70
2022-12-03T17:27:13.498Z,57.70
2022-12-03T17:28:47.279Z,57.80
2022-12-03T17:30:20.663Z,57.90
2022-12-03T17:31:54.031Z,57.90
2022-12-03T17:33:27.201Z,57.90
2022-12-03T17:35:00.789Z,57.80
2022-12-03T17:36:36.744Z,57.90
2022-12-03T17:38:11.302Z,57.90
2022-12-03T17:39:44.628Z,57.90
2022-12-03T17:41:18.069Z,57.90
2022-12-03T17:43:02.681Z,57.90
2022-12-03T17:44:35.794Z,57.90
2022-12-03T17:46:09.051Z,57.90
2022-12-03T17:47:42.350Z,57.90
2022-12-03T17:49:15.542Z,57.80
2022-12-03T17:50:50.095Z,57.90
2022-12-03T17:52:23.414Z,57.90
2022-12-03T17:53:56.594Z,57.90
2022-12-03T17:55:38.298Z,57.90
2022-12-03T17:57:15.351Z,58.00
2022-12-03T17:58:50.952Z,58.00
2022-12-03T18:00:24.484Z,58.70
2022-12-03T18:01:57.749Z,58.10
2022-12-03T18:03:31.271Z,58.20
2022-12-03T18:05:04.731Z,58.20
2022-12-03T18:06:38.450Z,58.20
2022-12-03T18:08:11.856Z,58.20
2022-12-03T18:09:45.101Z,58.10
2022-12-03T18:11:19.551Z,58.30
2022-12-03T18:12:55.884Z,58.20
2022-12-03T18:14:34.577Z,58.20
2022-12-03T18:16:08.740Z,58.20
2022-12-03T18:17:42.398Z,58.20
2022-12-03T18:19:15.715Z,58.10
2022-12-03T18:20:50.606Z,58.10
2022-12-03T18:22:24.123Z,58.30
2022-12-03T18:24:00.198Z,58.20
2022-12-03T18:25:33.576Z,58.30
2022-12-03T18:27:06.851Z,58.10
2022-12-03T18:28:42.073Z,58.20
2022-12-03T18:30:17.175Z,58.20
2022-12-03T18:31:50.499Z,58.10
2022-12-03T18:33:23.964Z,58.10
2022-12-03T18:34:57.498Z,58.10
2022-12-03T18:36:37.076Z,58.30
2022-12-03T18:38:12.890Z,58.20
2022-12-03T18:39:48.208Z,58.30
2022-12-03T18:41:23.117Z,58.30
2022-12-03T18:42:57.643Z,58.40
2022-12-03T18:44:30.831Z,58.40
2022-12-03T18:46:31.245Z,58.30
2022-12-03T18:48:13.594Z,58.30
2022-12-03T18:49:47.778Z,58.30
2022-12-03T18:51:25.002Z,58.30
2022-12-03T18:52:58.145Z,58.30
2022-12-03T18:54:31.400Z,58.30
2022-12-03T18:56:04.847Z,58.30
2022-12-03T18:57:38.259Z,58.30
2022-12-03T18:59:12.182Z,58.20
2022-12-03T19:00:45.367Z,58.20
2022-12-03T19:04:15.446Z,58.30
2022-12-03T19:05:48.634Z,58.10
2022-12-03T19:07:21.857Z,58.10
2022-12-03T19:08:55.255Z,58.10
2022-12-03T19:10:28.803Z,58.10
2022-12-03T19:12:02.088Z,58.10
2022-12-03T19:13:35.328Z,58.10
2022-12-03T19:15:11.035Z,58.10
2022-12-03T19:16:44.494Z,58.10
2022-12-03T19:18:19.622Z,58.10
2022-12-03T19:19:53.186Z,58.10
2022-12-03T19:21:33.356Z,58.00
2022-12-03T19:23:06.959Z,58.10
2022-12-03T19:24:40.080Z,58.10
2022-12-03T19:26:14.514Z,58.10
2022-12-03T19:27:49.143Z,58.30
2022-12-03T19:29:23.214Z,58.30
2022-12-03T19:30:58.792Z,58.30
2022-12-03T19:32:31.913Z,58.10
2022-12-03T19:34:06.582Z,58.00
2022-12-03T19:35:40.829Z,58.00
2022-12-03T19:37:14.287Z,58.10
2022-12-03T19:38:53.506Z,58.10
2022-12-03T19:40:32.009Z,58.30
2022-12-03T19:42:05.573Z,58.20
2022-12-03T19:43:41.150Z,58.80
2022-12-03T19:45:14.506Z,58.20
2022-12-03T19:46:50.662Z,58.10
2022-12-03T19:48:24.049Z,58.10
2022-12-03T19:49:58.579Z,58.10
2022-12-03T19:51:35.148Z,58.10
2022-12-03T19:53:10.336Z,58.10
2022-12-03T19:54:43.575Z,58.20
2022-12-03T19:56:19.724Z,58.10
2022-12-03T19:57:53.055Z,58.20
2022-12-03T19:59:26.483Z,58.10
2022-12-03T20:01:09.506Z,58.10
2022-12-03T20:02:42.762Z,58.30
2022-12-03T20:04:15.936Z,58.20
2022-12-03T20:05:50.812Z,58.10
2022-12-03T20:07:24.219Z,58.10
2022-12-03T20:08:59.740Z,58.10
2022-12-03T20:10:33.256Z,58.10
2022-12-03T20:12:07.838Z,58.20
2022-12-03T20:13:41.148Z,58.30
2022-12-03T20:15:16.051Z,58.30
2022-12-03T20:16:49.880Z,58.30
2022-12-03T20:18:23.240Z,58.20
2022-12-03T20:19:56.865Z,58.20
2022-12-03T20:21:35.651Z,58.30
2022-12-03T20:23:08.819Z,58.30
2022-12-03T20:24:42.062Z,58.30
2022-12-03T20:26:17.958Z,58.30
2022-12-03T20:27:51.205Z,58.30
2022-12-03T20:29:24.349Z,58.30
2022-12-03T20:31:01.603Z,58.30
2022-12-03T20:32:39.380Z,58.30
2022-12-03T20:34:15.322Z,58.30
2022-12-03T20:35:53.390Z,58.20
2022-12-03T20:37:27.915Z,58.30
2022-12-03T20:39:04.970Z,58.30